Nearby METAR Reports

 

KSJC - San Jose, California, USA
Distance from station: PnWs 14km
Aktualizacja: 16/08/2022 19:53
Bezchmurnie
Bezchmurnie
 Wiatr z varies
Wiatr: varies 6 km/h
Temperatura: 26°C
Punkt Rosy: 13°C
Wilgotność: 45%
Ciśnienie: 1009.5 hPa
Clouds: Bezchmurnie
Visibility: 16 km
2022/08/16 17:53 KSJC 161753Z VRB03KT 10SM CLR 26/13 A2981 RMK AO2 SLP093 T02610133 10267 20161 58006 $
KNUQ - Moffett Nas/Mtn, California, USA
Distance from station: Pn 14km
Aktualizacja: 16/08/2022 20:35
Bezchmurnie
Bezchmurnie
 Wiatr z Pn
Wiatr: Pn 9 km/h
Temperatura: 25°C
Punkt Rosy: 16°C
Wilgotność: 57%
Ciśnienie: 1009.5 hPa
Clouds: Bezchmurnie
Visibility: 14 km
2022/08/16 18:35 KNUQ 161835Z AUTO 36005KT 9SM CLR 25/16 A2981 RMK AO2
 
KPAO - Palo Alto, California, USA
Distance from station: PnPnZd 23km
Aktualizacja: 16/08/2022 19:47
Bezchmurnie
Bezchmurnie
 Wiatr z PnPnZd
Wiatr: PnPnZd 11 km/h
Temperatura: 22°C
Punkt Rosy: 17°C
Wilgotność: 73%
Ciśnienie: 1009.8 hPa
Clouds: Bezchmurnie
Visibility: 16 km
2022/08/16 17:47 KPAO 161747Z 02006KT 10SM SKC 22/17 A2982
KRHV - San Jose/Reid, California, USA
Distance from station: WsPnWs 19km
Aktualizacja: 16/08/2022 19:47
Bezchmurnie
Bezchmurnie
 Wiatr z calm
Wiatr: Cisza
Temperatura: 27°C
Punkt Rosy: 12°C
Wilgotność: 39%
Ciśnienie: 1009.8 hPa
Clouds: Bezchmurnie
Visibility: 16 km
2022/08/16 17:47 KRHV 161747Z 00000KT 10SM SKC 27/12 A2982
 
KOAK - Oakland, California, USA
Distance from station: PnPnZd 50km
Aktualizacja: 16/08/2022 19:53
Bezchmurnie
Bezchmurnie
 Wiatr z Zd
Wiatr: Zd 13 km/h
Temperatura: 22°C
Punkt Rosy: 15°C
Wilgotność: 65%
Ciśnienie: 1009.8 hPa
Clouds: Bezchmurnie
Visibility: 16 km
2022/08/16 17:53 KOAK 161753Z 27007KT 10SM CLR 22/15 A2982 RMK AO2 SLP096 T02170150 10217 20128 58004
KSQL - San Carlos Airpo, California, USA
Distance from station: PnZd 34km
Aktualizacja: 16/08/2022 20:47
Bezchmurnie
Bezchmurnie
 Wiatr z calm
Wiatr: Cisza
Temperatura: 23°C
Punkt Rosy: 17°C
Wilgotność: 69%
Ciśnienie: 1009.8 hPa
Clouds: Bezchmurnie
Visibility: 16 km
2022/08/16 18:47 KSQL 161847Z 00000KT 10SM CLR 23/17 A2982
 
KSFO - San Francisco, California, USA
Distance from station: PnZd 49km
Aktualizacja: 16/08/2022 19:56
Few Clouds
Few Clouds
 Wiatr z WsPnWs
Wiatr: WsPnWs 9 km/h
Temperatura: 21°C
Punkt Rosy: 15°C
Wilgotność: 69%
Ciśnienie: 1009.5 hPa
Clouds: Few Clouds
Visibility: 16 km
Cloud details: Few Clouds 183 m
2022/08/16 17:56 KSFO 161756Z 06005KT 10SM FEW006 21/15 A2981 RMK AO2 SLP096 T02110150 10211 20139 58004
KE16 - San Martin, California, USA
Distance from station: WsPdWs 43km
Aktualizacja: 16/08/2022 20:35
Bezchmurnie
Bezchmurnie
 Wiatr z PdPdWs
Wiatr: PdPdWs 9 km/h
Temperatura: 27°C
Punkt Rosy: 8°C
Wilgotność: 30%
Ciśnienie: 1010.2 hPa
Clouds: Bezchmurnie
Visibility: 16 km
2022/08/16 18:35 KE16 161835Z AUTO 16005KT 10SM CLR 27/08 A2983 RMK AO2
 
KWVI - Watsonville, California, USA
Distance from station: PdPdWs 44km
Aktualizacja: 16/08/2022 19:53
Bezchmurnie
Bezchmurnie
 Wiatr z varies
Wiatr: varies 7 km/h
Temperatura: 20°C
Punkt Rosy: 13°C
Wilgotność: 64%
Ciśnienie: 1010.5 hPa
Clouds: Bezchmurnie
Visibility: 16 km
2022/08/16 17:53 KWVI 161753Z AUTO VRB04KT 10SM CLR 20/13 A2984 RMK AO2 SLP105 T02000133 10200 20100 58005
KHAF - Half Moon Bay, California, USA
Distance from station: ZdPnZd 50km
Aktualizacja: 16/08/2022 20:35
Mist, Pochmurno
Mist, Pochmurno
 Wiatr z Pd
Wiatr: Pd 13 km/h
Temperatura: 14°C
Punkt Rosy: 14°C
Wilgotność: 100%
Ciśnienie: 1010.8 hPa
Podsumowanie: Mist
Clouds: Pochmurno
Visibility: 1.2 km
Cloud details: Pochmurno 91 m
2022/08/16 18:35 KHAF 161835Z AUTO 18007KT 3/4SM BR OVC003 14/14 A2985 RMK AO2
 
KHWD - Hayward, California, USA
Distance from station: Pn 44km
Aktualizacja: 16/08/2022 19:54
Bezchmurnie
Bezchmurnie
 Wiatr z varies
Wiatr: varies 7 km/h
Temperatura: 24°C
Punkt Rosy: 15°C
Wilgotność: 57%
Ciśnienie: 1009.5 hPa
Clouds: Bezchmurnie
Visibility: 16 km
2022/08/16 17:54 KHWD 161754Z VRB04KT 10SM CLR 24/15 A2981 RMK AO2 SLP102 T02440150 10244 20144 58005
KLVK - Livermore, California, USA
Distance from station: PnPnZd 51km
Aktualizacja: 16/08/2022 19:53
Bezchmurnie
Bezchmurnie
 Wiatr z calm
Wiatr: Cisza
Temperatura: 30°C
Punkt Rosy: 10°C
Wilgotność: 29%
Ciśnienie: 1009.1 hPa
Clouds: Bezchmurnie
Visibility: 16 km
2022/08/16 17:53 KLVK 161753Z 00000KT 10SM CLR 30/10 A2980 RMK AO2 SLP087 T03000100 10300 20161 58006 $